Fort Mc Clellan, Alabama
Current Conditions -  °F | °C
As of 3:53 PM on Sunday 21 Dec 2014 (Local Time) from KANB Reporting Station
Overcast Overcast  
Wind Chill: 52°   Ceiling: 1700
Heat Index: 52°   Visibility: 10mi
Dew Point: 46°   Wind: 6mph
Humidity: 80%   Direction: 70°ENE
Pressure: 30.09"   Gusts: NA
Location:  33.6986°N, 85.7619°W
Report Text: KANB 212153Z AUTO 07005KT 10SM OVC017 11/08 A3009 RMK AO2 SLP195 T01110078
Loading
Personal Weather Stations






























Interactive Weather Map New forecast layout! Learn more

10-Day Weather Forecast

Advertisements
Track Severe Weather on mobile